sensor_id;sensor_type;location;lat;lon;timestamp;temperature;humidity
57106;DHT22;62662;56.788;23.942;2022-11-23T00:01:24;-3.20;99.90
57106;DHT22;62662;56.788;23.942;2022-11-23T00:03:53;-3.30;99.90
57106;DHT22;62662;56.788;23.942;2022-11-23T00:06:22;-3.30;99.90
57106;DHT22;62662;56.788;23.942;2022-11-23T00:08:49;-3.30;99.90
57106;DHT22;62662;56.788;23.942;2022-11-23T00:11:17;-3.30;99.90
57106;DHT22;62662;56.788;23.942;2022-11-23T00:13:45;-3.10;99.90
57106;DHT22;62662;56.788;23.942;2022-11-23T00:16:20;-3.40;99.90
57106;DHT22;62662;56.788;23.942;2022-11-23T00:18:50;-3.40;99.90
57106;DHT22;62662;56.788;23.942;2022-11-23T00:21:18;-2.30;99.90
57106;DHT22;62662;56.788;23.942;2022-11-23T00:23:46;-3.40;99.90
57106;DHT22;62662;56.788;23.942;2022-11-23T00:26:14;-3.40;99.90
57106;DHT22;62662;56.788;23.942;2022-11-23T00:28:41;-3.30;99.90
57106;DHT22;62662;56.788;23.942;2022-11-23T00:31:11;-2.70;99.90
57106;DHT22;62662;56.788;23.942;2022-11-23T00:33:39;-3.30;99.90
57106;DHT22;62662;56.788;23.942;2022-11-23T00:36:11;-2.90;99.90
57106;DHT22;62662;56.788;23.942;2022-11-23T00:38:38;-3.40;99.90
57106;DHT22;62662;56.788;23.942;2022-11-23T00:41:11;-3.40;99.90
57106;DHT22;62662;56.788;23.942;2022-11-23T00:43:38;-3.30;99.90
57106;DHT22;62662;56.788;23.942;2022-11-23T00:46:20;-3.40;99.90
57106;DHT22;62662;56.788;23.942;2022-11-23T00:48:50;-3.40;99.90
57106;DHT22;62662;56.788;23.942;2022-11-23T00:51:23;-3.30;99.90
57106;DHT22;62662;56.788;23.942;2022-11-23T00:53:50;-2.50;99.90
57106;DHT22;62662;56.788;23.942;2022-11-23T00:56:18;-3.00;99.90
57106;DHT22;62662;56.788;23.942;2022-11-23T00:58:49;-3.20;99.90
57106;DHT22;62662;56.788;23.942;2022-11-23T01:01:18;-3.20;99.90
57106;DHT22;62662;56.788;23.942;2022-11-23T01:04:06;-3.10;99.90
57106;DHT22;62662;56.788;23.942;2022-11-23T01:06:36;-3.10;99.90
57106;DHT22;62662;56.788;23.942;2022-11-23T01:11:33;-3.00;99.90
57106;DHT22;62662;56.788;23.942;2022-11-23T01:14:01;-3.10;99.90
57106;DHT22;62662;56.788;23.942;2022-11-23T01:16:37;-3.20;99.90
57106;DHT22;62662;56.788;23.942;2022-11-23T01:19:07;-3.10;99.90
57106;DHT22;62662;56.788;23.942;2022-11-23T01:21:36;-3.10;99.90
57106;DHT22;62662;56.788;23.942;2022-11-23T01:24:07;-3.10;99.90
57106;DHT22;62662;56.788;23.942;2022-11-23T01:26:35;-3.10;99.90
57106;DHT22;62662;56.788;23.942;2022-11-23T01:29:02;-3.20;99.90
57106;DHT22;62662;56.788;23.942;2022-11-23T01:31:29;-3.20;99.90
57106;DHT22;62662;56.788;23.942;2022-11-23T01:33:58;-2.70;99.90
57106;DHT22;62662;56.788;23.942;2022-11-23T01:36:27;-3.20;99.90
57106;DHT22;62662;56.788;23.942;2022-11-23T01:38:55;-3.10;99.90
57106;DHT22;62662;56.788;23.942;2022-11-23T01:41:26;-3.10;99.90
57106;DHT22;62662;56.788;23.942;2022-11-23T01:43:53;-3.20;99.90
57106;DHT22;62662;56.788;23.942;2022-11-23T01:46:21;-3.10;99.90
57106;DHT22;62662;56.788;23.942;2022-11-23T01:48:54;-3.20;99.90
57106;DHT22;62662;56.788;23.942;2022-11-23T01:51:36;-3.30;99.90
57106;DHT22;62662;56.788;23.942;2022-11-23T01:54:20;-3.30;99.90
57106;DHT22;62662;56.788;23.942;2022-11-23T01:56:56;-3.10;99.90
57106;DHT22;62662;56.788;23.942;2022-11-23T01:59:27;-3.10;99.90
57106;DHT22;62662;56.788;23.942;2022-11-23T02:01:56;-3.10;99.90
57106;DHT22;62662;56.788;23.942;2022-11-23T02:04:30;-2.80;99.90
57106;DHT22;62662;56.788;23.942;2022-11-23T02:07:00;-3.10;99.90
57106;DHT22;62662;56.788;23.942;2022-11-23T02:09:30;-3.30;99.90
57106;DHT22;62662;56.788;23.942;2022-11-23T02:11:58;-3.20;99.90
57106;DHT22;62662;56.788;23.942;2022-11-23T02:14:25;-2.20;99.90
57106;DHT22;62662;56.788;23.942;2022-11-23T02:16:53;-3.30;99.90
57106;DHT22;62662;56.788;23.942;2022-11-23T02:19:37;-3.20;99.90
57106;DHT22;62662;56.788;23.942;2022-11-23T02:25:26;-3.30;99.90
57106;DHT22;62662;56.788;23.942;2022-11-23T02:27:56;-3.30;99.90
57106;DHT22;62662;56.788;23.942;2022-11-23T02:30:24;-3.20;99.90
57106;DHT22;62662;56.788;23.942;2022-11-23T02:32:51;-3.10;99.90
57106;DHT22;62662;56.788;23.942;2022-11-23T02:35:17;-3.20;99.90
57106;DHT22;62662;56.788;23.942;2022-11-23T02:37:44;-2.90;99.90
57106;DHT22;62662;56.788;23.942;2022-11-23T02:40:31;-2.90;99.90
57106;DHT22;62662;56.788;23.942;2022-11-23T02:42:59;-3.10;99.90
57106;DHT22;62662;56.788;23.942;2022-11-23T02:45:59;-3.20;99.90
57106;DHT22;62662;56.788;23.942;2022-11-23T02:48:27;-3.10;99.90
57106;DHT22;62662;56.788;23.942;2022-11-23T02:50:54;-3.20;99.90
57106;DHT22;62662;56.788;23.942;2022-11-23T02:53:21;-3.20;99.90
57106;DHT22;62662;56.788;23.942;2022-11-23T02:55:47;-3.10;99.90
57106;DHT22;62662;56.788;23.942;2022-11-23T02:58:14;-3.00;99.90
57106;DHT22;62662;56.788;23.942;2022-11-23T03:00:42;-2.70;99.90
57106;DHT22;62662;56.788;23.942;2022-11-23T03:03:09;-2.80;99.90
57106;DHT22;62662;56.788;23.942;2022-11-23T03:05:35;-3.30;99.90
57106;DHT22;62662;56.788;23.942;2022-11-23T03:08:03;-3.30;99.90
57106;DHT22;62662;56.788;23.942;2022-11-23T03:10:30;-3.20;99.90
57106;DHT22;62662;56.788;23.942;2022-11-23T03:12:57;-3.00;99.90
57106;DHT22;62662;56.788;23.942;2022-11-23T03:15:24;-3.00;99.90
57106;DHT22;62662;56.788;23.942;2022-11-23T03:17:51;-3.10;99.90
57106;DHT22;62662;56.788;23.942;2022-11-23T03:20:18;-2.00;99.90
57106;DHT22;62662;56.788;23.942;2022-11-23T03:22:46;-3.20;99.90
57106;DHT22;62662;56.788;23.942;2022-11-23T03:25:13;-3.00;99.90
57106;DHT22;62662;56.788;23.942;2022-11-23T03:27:40;-2.30;99.90
57106;DHT22;62662;56.788;23.942;2022-11-23T03:30:08;-3.30;99.90
57106;DHT22;62662;56.788;23.942;2022-11-23T03:32:36;-3.30;99.90
57106;DHT22;62662;56.788;23.942;2022-11-23T03:35:04;-3.10;99.90
57106;DHT22;62662;56.788;23.942;2022-11-23T03:37:31;-3.20;99.90
57106;DHT22;62662;56.788;23.942;2022-11-23T03:39:58;-3.10;99.90
57106;DHT22;62662;56.788;23.942;2022-11-23T03:42:25;-2.30;99.90
57106;DHT22;62662;56.788;23.942;2022-11-23T03:44:52;-3.20;99.90
57106;DHT22;62662;56.788;23.942;2022-11-23T03:47:20;-3.20;99.90
57106;DHT22;62662;56.788;23.942;2022-11-23T03:49:47;-3.20;99.90
57106;DHT22;62662;56.788;23.942;2022-11-23T03:52:14;-3.30;99.90
57106;DHT22;62662;56.788;23.942;2022-11-23T03:54:41;-2.70;99.90
57106;DHT22;62662;56.788;23.942;2022-11-23T03:57:08;-3.30;99.90
57106;DHT22;62662;56.788;23.942;2022-11-23T03:59:35;-3.30;99.90
57106;DHT22;62662;56.788;23.942;2022-11-23T04:02:01;-3.20;99.90
57106;DHT22;62662;56.788;23.942;2022-11-23T04:04:28;-3.20;99.90
57106;DHT22;62662;56.788;23.942;2022-11-23T04:06:55;-3.10;99.90
57106;DHT22;62662;56.788;23.942;2022-11-23T04:09:22;-3.10;99.90
57106;DHT22;62662;56.788;23.942;2022-11-23T04:11:49;-2.00;99.90
57106;DHT22;62662;56.788;23.942;2022-11-23T04:14:16;-3.10;99.90
57106;DHT22;62662;56.788;23.942;2022-11-23T04:16:44;-3.20;99.90
57106;DHT22;62662;56.788;23.942;2022-11-23T04:19:11;-3.20;99.90
57106;DHT22;62662;56.788;23.942;2022-11-23T04:21:37;-2.40;99.90
57106;DHT22;62662;56.788;23.942;2022-11-23T04:24:04;-3.20;99.90
57106;DHT22;62662;56.788;23.942;2022-11-23T04:26:32;-3.00;99.90
57106;DHT22;62662;56.788;23.942;2022-11-23T04:28:59;-2.40;99.90
57106;DHT22;62662;56.788;23.942;2022-11-23T04:31:26;-2.70;99.90
57106;DHT22;62662;56.788;23.942;2022-11-23T04:33:54;-2.90;99.90
57106;DHT22;62662;56.788;23.942;2022-11-23T04:36:22;-2.90;99.90
57106;DHT22;62662;56.788;23.942;2022-11-23T04:38:49;-2.80;99.90
57106;DHT22;62662;56.788;23.942;2022-11-23T04:41:17;-3.00;99.90
57106;DHT22;62662;56.788;23.942;2022-11-23T04:43:46;-1.60;99.90
57106;DHT22;62662;56.788;23.942;2022-11-23T04:46:14;-3.00;99.90
57106;DHT22;62662;56.788;23.942;2022-11-23T04:48:42;-3.10;99.90
57106;DHT22;62662;56.788;23.942;2022-11-23T04:51:10;-2.20;99.90
57106;DHT22;62662;56.788;23.942;2022-11-23T04:53:37;-2.10;99.90
57106;DHT22;62662;56.788;23.942;2022-11-23T04:56:05;-2.90;99.90
57106;DHT22;62662;56.788;23.942;2022-11-23T04:58:33;-3.20;99.90
57106;DHT22;62662;56.788;23.942;2022-11-23T05:01:03;-2.30;99.90
57106;DHT22;62662;56.788;23.942;2022-11-23T05:03:31;-3.20;99.90
57106;DHT22;62662;56.788;23.942;2022-11-23T05:06:03;-2.50;99.90
57106;DHT22;62662;56.788;23.942;2022-11-23T05:08:33;-3.00;99.90
57106;DHT22;62662;56.788;23.942;2022-11-23T05:11:00;-1.60;99.90
57106;DHT22;62662;56.788;23.942;2022-11-23T05:13:27;-2.20;99.90
57106;DHT22;62662;56.788;23.942;2022-11-23T05:15:54;-3.20;99.90
57106;DHT22;62662;56.788;23.942;2022-11-23T05:18:21;-2.50;99.90
57106;DHT22;62662;56.788;23.942;2022-11-23T05:20:48;-3.40;99.90
57106;DHT22;62662;56.788;23.942;2022-11-23T05:23:16;-3.50;99.90
57106;DHT22;62662;56.788;23.942;2022-11-23T05:25:43;-3.50;99.90
57106;DHT22;62662;56.788;23.942;2022-11-23T05:28:15;-4.20;99.90
57106;DHT22;62662;56.788;23.942;2022-11-23T05:31:05;-3.60;99.90
57106;DHT22;62662;56.788;23.942;2022-11-23T05:33:32;-3.50;99.90
57106;DHT22;62662;56.788;23.942;2022-11-23T05:35:59;-3.40;99.90
57106;DHT22;62662;56.788;23.942;2022-11-23T05:38:26;-3.50;99.90
57106;DHT22;62662;56.788;23.942;2022-11-23T05:40:54;-3.50;99.90
57106;DHT22;62662;56.788;23.942;2022-11-23T05:43:22;-3.50;99.90
57106;DHT22;62662;56.788;23.942;2022-11-23T05:45:50;-3.40;99.90
57106;DHT22;62662;56.788;23.942;2022-11-23T05:48:36;-2.50;99.90
57106;DHT22;62662;56.788;23.942;2022-11-23T05:51:17;-3.70;99.90
57106;DHT22;62662;56.788;23.942;2022-11-23T05:53:46;-3.20;99.90
57106;DHT22;62662;56.788;23.942;2022-11-23T05:56:16;-3.20;99.90
57106;DHT22;62662;56.788;23.942;2022-11-23T05:58:48;-3.30;99.90
57106;DHT22;62662;56.788;23.942;2022-11-23T06:02:03;-2.30;99.90
57106;DHT22;62662;56.788;23.942;2022-11-23T06:04:45;-3.20;99.90
57106;DHT22;62662;56.788;23.942;2022-11-23T06:07:38;-3.20;99.90
57106;DHT22;62662;56.788;23.942;2022-11-23T06:10:14;-3.00;99.90
57106;DHT22;62662;56.788;23.942;2022-11-23T06:12:45;-2.20;99.90
57106;DHT22;62662;56.788;23.942;2022-11-23T06:15:34;-3.00;99.90
57106;DHT22;62662;56.788;23.942;2022-11-23T06:18:08;-3.20;99.90
57106;DHT22;62662;56.788;23.942;2022-11-23T06:20:52;-3.30;99.90
57106;DHT22;62662;56.788;23.942;2022-11-23T06:23:30;-4.60;99.90
57106;DHT22;62662;56.788;23.942;2022-11-23T06:26:28;-3.30;99.90
57106;DHT22;62662;56.788;23.942;2022-11-23T06:29:18;-3.20;99.90
57106;DHT22;62662;56.788;23.942;2022-11-23T06:35:24;-1.80;99.90
57106;DHT22;62662;56.788;23.942;2022-11-23T06:38:16;-1.70;99.90
57106;DHT22;62662;56.788;23.942;2022-11-23T06:41:15;-2.80;99.90
57106;DHT22;62662;56.788;23.942;2022-11-23T06:44:38;-2.70;99.90
57106;DHT22;62662;56.788;23.942;2022-11-23T06:47:42;-2.70;99.90
57106;DHT22;62662;56.788;23.942;2022-11-23T06:50:13;-2.70;99.90
57106;DHT22;62662;56.788;23.942;2022-11-23T06:59:56;-2.70;99.90
57106;DHT22;62662;56.788;23.942;2022-11-23T07:06:07;-2.90;99.90
57106;DHT22;62662;56.788;23.942;2022-11-23T07:08:39;-2.80;99.90
57106;DHT22;62662;56.788;23.942;2022-11-23T07:11:22;-2.70;99.90
57106;DHT22;62662;56.788;23.942;2022-11-23T07:13:59;-2.60;99.90
57106;DHT22;62662;56.788;23.942;2022-11-23T07:16:39;-2.50;99.90
57106;DHT22;62662;56.788;23.942;2022-11-23T07:19:11;-2.60;99.90
57106;DHT22;62662;56.788;23.942;2022-11-23T07:21:44;-2.60;99.90
57106;DHT22;62662;56.788;23.942;2022-11-23T07:24:28;-2.70;99.90
57106;DHT22;62662;56.788;23.942;2022-11-23T07:27:09;-2.50;99.90
57106;DHT22;62662;56.788;23.942;2022-11-23T07:29:42;-2.50;99.90
57106;DHT22;62662;56.788;23.942;2022-11-23T07:32:23;-3.40;99.90
57106;DHT22;62662;56.788;23.942;2022-11-23T07:35:00;-2.40;99.90
57106;DHT22;62662;56.788;23.942;2022-11-23T07:37:48;-1.20;99.90
57106;DHT22;62662;56.788;23.942;2022-11-23T07:48:26;-2.10;99.90
57106;DHT22;62662;56.788;23.942;2022-11-23T07:51:02;-2.10;99.90
57106;DHT22;62662;56.788;23.942;2022-11-23T07:53:30;-2.10;99.90
57106;DHT22;62662;56.788;23.942;2022-11-23T07:55:59;-2.10;99.90
57106;DHT22;62662;56.788;23.942;2022-11-23T07:58:27;-2.20;99.90
57106;DHT22;62662;56.788;23.942;2022-11-23T08:00:54;-2.20;99.90
57106;DHT22;62662;56.788;23.942;2022-11-23T08:03:21;-2.20;99.90
57106;DHT22;62662;56.788;23.942;2022-11-23T08:05:54;-2.10;99.90
57106;DHT22;62662;56.788;23.942;2022-11-23T08:08:22;-2.00;99.90
57106;DHT22;62662;56.788;23.942;2022-11-23T08:10:50;-1.90;99.90
57106;DHT22;62662;56.788;23.942;2022-11-23T08:13:21;-2.20;99.90
57106;DHT22;62662;56.788;23.942;2022-11-23T08:15:49;-1.70;99.90
57106;DHT22;62662;56.788;23.942;2022-11-23T08:18:22;-1.60;99.90
57106;DHT22;62662;56.788;23.942;2022-11-23T08:20:51;-1.60;99.90
57106;DHT22;62662;56.788;23.942;2022-11-23T08:23:26;-1.50;99.90
57106;DHT22;62662;56.788;23.942;2022-11-23T08:25:55;-2.00;99.90
57106;DHT22;62662;56.788;23.942;2022-11-23T08:28:27;-1.70;99.90
57106;DHT22;62662;56.788;23.942;2022-11-23T08:31:21;-1.70;99.90
57106;DHT22;62662;56.788;23.942;2022-11-23T08:41:59;-1.70;99.90
57106;DHT22;62662;56.788;23.942;2022-11-23T08:48:44;-1.50;99.90
57106;DHT22;62662;56.788;23.942;2022-11-23T08:55:21;-1.50;99.90
57106;DHT22;62662;56.788;23.942;2022-11-23T09:15:12;-1.50;99.90
57106;DHT22;62662;56.788;23.942;2022-11-23T09:17:41;-0.40;99.90
57106;DHT22;62662;56.788;23.942;2022-11-23T09:20:09;-1.60;99.90
57106;DHT22;62662;56.788;23.942;2022-11-23T09:22:41;-2.40;99.90
57106;DHT22;62662;56.788;23.942;2022-11-23T09:25:21;-2.70;99.90
57106;DHT22;62662;56.788;23.942;2022-11-23T09:27:56;-1.60;99.90
57106;DHT22;62662;56.788;23.942;2022-11-23T09:30:34;-1.50;99.90
57106;DHT22;62662;56.788;23.942;2022-11-23T09:33:23;-1.50;99.90
57106;DHT22;62662;56.788;23.942;2022-11-23T09:36:10;-1.40;99.90
57106;DHT22;62662;56.788;23.942;2022-11-23T09:51:47;-2.10;99.90
57106;DHT22;62662;56.788;23.942;2022-11-23T09:54:52;-1.40;99.90
57106;DHT22;62662;56.788;23.942;2022-11-23T09:57:35;-1.40;99.90
57106;DHT22;62662;56.788;23.942;2022-11-23T10:00:40;-1.30;99.90
57106;DHT22;62662;56.788;23.942;2022-11-23T10:03:47;-1.20;99.90
57106;DHT22;62662;56.788;23.942;2022-11-23T10:21:05;-1.70;99.90
57106;DHT22;62662;56.788;23.942;2022-11-23T10:37:14;-1.30;99.90
57106;DHT22;62662;56.788;23.942;2022-11-23T10:40:30;-1.10;99.90
57106;DHT22;62662;56.788;23.942;2022-11-23T10:43:07;-1.00;99.90
57106;DHT22;62662;56.788;23.942;2022-11-23T10:45:48;-0.40;99.90
57106;DHT22;62662;56.788;23.942;2022-11-23T10:48:43;-1.10;99.90
57106;DHT22;62662;56.788;23.942;2022-11-23T10:52:27;-0.70;99.90
57106;DHT22;62662;56.788;23.942;2022-11-23T10:55:24;-1.20;99.90
57106;DHT22;62662;56.788;23.942;2022-11-23T10:58:07;-1.30;99.90
57106;DHT22;62662;56.788;23.942;2022-11-23T11:01:18;-1.30;99.90
57106;DHT22;62662;56.788;23.942;2022-11-23T11:04:22;-1.20;99.90
57106;DHT22;62662;56.788;23.942;2022-11-23T11:07:19;-1.40;99.90
57106;DHT22;62662;56.788;23.942;2022-11-23T11:09:58;-1.50;99.90
57106;DHT22;62662;56.788;23.942;2022-11-23T11:12:28;-1.40;99.90
57106;DHT22;62662;56.788;23.942;2022-11-23T11:15:18;-1.30;99.90
57106;DHT22;62662;56.788;23.942;2022-11-23T11:17:58;-1.20;99.90
57106;DHT22;62662;56.788;23.942;2022-11-23T11:20:32;-1.30;99.90
57106;DHT22;62662;56.788;23.942;2022-11-23T11:23:16;-1.30;99.90
57106;DHT22;62662;56.788;23.942;2022-11-23T11:26:17;-1.60;99.90
57106;DHT22;62662;56.788;23.942;2022-11-23T11:28:53;-1.50;99.90
57106;DHT22;62662;56.788;23.942;2022-11-23T11:36:14;-2.10;99.90
57106;DHT22;62662;56.788;23.942;2022-11-23T11:39:29;-1.60;99.90
57106;DHT22;62662;56.788;23.942;2022-11-23T11:42:03;-1.50;99.90
57106;DHT22;62662;56.788;23.942;2022-11-23T11:44:35;-1.40;99.90
57106;DHT22;62662;56.788;23.942;2022-11-23T11:47:25;-1.40;99.90
57106;DHT22;62662;56.788;23.942;2022-11-23T11:49:57;-1.50;99.90
57106;DHT22;62662;56.788;23.942;2022-11-23T11:52:35;-1.60;99.90
57106;DHT22;62662;56.788;23.942;2022-11-23T11:55:45;-1.50;99.90
57106;DHT22;62662;56.788;23.942;2022-11-23T11:58:24;-1.40;99.90
57106;DHT22;62662;56.788;23.942;2022-11-23T12:01:34;-1.30;99.90
57106;DHT22;62662;56.788;23.942;2022-11-23T12:04:20;-1.30;99.90
57106;DHT22;62662;56.788;23.942;2022-11-23T12:07:07;-1.30;99.90
57106;DHT22;62662;56.788;23.942;2022-11-23T12:09:41;-1.40;99.90
57106;DHT22;62662;56.788;23.942;2022-11-23T12:12:18;-1.30;99.90
57106;DHT22;62662;56.788;23.942;2022-11-23T12:14:55;-1.30;99.90
57106;DHT22;62662;56.788;23.942;2022-11-23T12:17:45;-1.40;99.90
57106;DHT22;62662;56.788;23.942;2022-11-23T12:23:59;-1.30;99.90
57106;DHT22;62662;56.788;23.942;2022-11-23T12:30:00;-1.50;99.90
57106;DHT22;62662;56.788;23.942;2022-11-23T12:35:47;-1.40;99.90
57106;DHT22;62662;56.788;23.942;2022-11-23T12:39:20;-1.50;99.90
57106;DHT22;62662;56.788;23.942;2022-11-23T12:42:16;-2.10;99.90
57106;DHT22;62662;56.788;23.942;2022-11-23T12:45:12;-1.30;99.90
57106;DHT22;62662;56.788;23.942;2022-11-23T12:56:20;-0.30;99.90
57106;DHT22;62662;56.788;23.942;2022-11-23T12:58:52;-1.50;99.90
57106;DHT22;62662;56.788;23.942;2022-11-23T13:01:33;-1.60;99.90
57106;DHT22;62662;56.788;23.942;2022-11-23T13:10:07;-1.70;99.90
57106;DHT22;62662;56.788;23.942;2022-11-23T13:21:50;-1.90;99.90
57106;DHT22;62662;56.788;23.942;2022-11-23T13:24:29;-1.90;99.90
57106;DHT22;62662;56.788;23.942;2022-11-23T13:40:43;-1.90;99.90
57106;DHT22;62662;56.788;23.942;2022-11-23T13:43:23;-1.40;99.90
57106;DHT22;62662;56.788;23.942;2022-11-23T13:46:26;-2.00;99.90
57106;DHT22;62662;56.788;23.942;2022-11-23T13:48:58;-1.90;99.90
57106;DHT22;62662;56.788;23.942;2022-11-23T13:51:31;-1.90;99.90
57106;DHT22;62662;56.788;23.942;2022-11-23T13:54:19;-1.50;99.90
57106;DHT22;62662;56.788;23.942;2022-11-23T13:56:57;-1.90;99.90
57106;DHT22;62662;56.788;23.942;2022-11-23T13:59:31;-1.90;99.90
57106;DHT22;62662;56.788;23.942;2022-11-23T14:04:44;-1.90;99.90
57106;DHT22;62662;56.788;23.942;2022-11-23T14:07:23;-2.00;99.90
57106;DHT22;62662;56.788;23.942;2022-11-23T14:09:57;-2.00;99.90
57106;DHT22;62662;56.788;23.942;2022-11-23T14:15:24;-2.00;99.90
57106;DHT22;62662;56.788;23.942;2022-11-23T14:26:37;-2.10;99.90
57106;DHT22;62662;56.788;23.942;2022-11-23T14:32:40;-2.10;99.90
57106;DHT22;62662;56.788;23.942;2022-11-23T14:38:02;-2.20;99.90
57106;DHT22;62662;56.788;23.942;2022-11-23T14:43:18;-2.20;99.90
57106;DHT22;62662;56.788;23.942;2022-11-23T14:45:47;-2.20;99.90
57106;DHT22;62662;56.788;23.942;2022-11-23T14:48:29;-2.10;99.90
57106;DHT22;62662;56.788;23.942;2022-11-23T14:51:02;-2.10;99.90
57106;DHT22;62662;56.788;23.942;2022-11-23T14:53:41;-2.20;99.90
57106;DHT22;62662;56.788;23.942;2022-11-23T14:59:28;-2.00;99.90
57106;DHT22;62662;56.788;23.942;2022-11-23T15:02:00;-2.10;99.90
57106;DHT22;62662;56.788;23.942;2022-11-23T15:04:30;-2.00;99.90
57106;DHT22;62662;56.788;23.942;2022-11-23T15:07:15;-1.50;99.90
57106;DHT22;62662;56.788;23.942;2022-11-23T15:10:10;-1.90;99.90
57106;DHT22;62662;56.788;23.942;2022-11-23T15:12:43;-2.00;99.90
57106;DHT22;62662;56.788;23.942;2022-11-23T15:15:27;-2.10;99.90
57106;DHT22;62662;56.788;23.942;2022-11-23T15:17:57;-2.10;99.90
57106;DHT22;62662;56.788;23.942;2022-11-23T15:20:33;-2.10;99.90
57106;DHT22;62662;56.788;23.942;2022-11-23T15:23:01;-2.10;99.90
57106;DHT22;62662;56.788;23.942;2022-11-23T15:25:28;-1.00;99.90
57106;DHT22;62662;56.788;23.942;2022-11-23T15:27:56;-1.70;99.90
57106;DHT22;62662;56.788;23.942;2022-11-23T15:30:28;-2.00;99.90
57106;DHT22;62662;56.788;23.942;2022-11-23T15:33:00;-1.90;99.90
57106;DHT22;62662;56.788;23.942;2022-11-23T15:35:31;-1.90;99.90
57106;DHT22;62662;56.788;23.942;2022-11-23T15:38:00;-1.90;99.90
57106;DHT22;62662;56.788;23.942;2022-11-23T15:40:31;-1.90;99.90
57106;DHT22;62662;56.788;23.942;2022-11-23T15:42:59;-1.90;99.90
57106;DHT22;62662;56.788;23.942;2022-11-23T15:48:04;-1.90;99.90
57106;DHT22;62662;56.788;23.942;2022-11-23T15:50:32;-1.90;99.90
57106;DHT22;62662;56.788;23.942;2022-11-23T15:53:00;-2.90;99.90
57106;DHT22;62662;56.788;23.942;2022-11-23T15:55:28;-2.00;99.90
57106;DHT22;62662;56.788;23.942;2022-11-23T15:57:56;-1.40;99.90
57106;DHT22;62662;56.788;23.942;2022-11-23T16:00:24;-2.00;99.90
57106;DHT22;62662;56.788;23.942;2022-11-23T16:02:52;-2.00;99.90
57106;DHT22;62662;56.788;23.942;2022-11-23T16:05:21;-2.00;99.90
57106;DHT22;62662;56.788;23.942;2022-11-23T16:07:56;-1.90;99.90
57106;DHT22;62662;56.788;23.942;2022-11-23T16:10:32;-1.90;99.90
57106;DHT22;62662;56.788;23.942;2022-11-23T16:13:03;-1.40;99.90
57106;DHT22;62662;56.788;23.942;2022-11-23T16:15:36;-2.00;99.90
57106;DHT22;62662;56.788;23.942;2022-11-23T16:20:54;-1.90;99.90
57106;DHT22;62662;56.788;23.942;2022-11-23T16:23:32;-2.00;99.90
57106;DHT22;62662;56.788;23.942;2022-11-23T16:26:04;-1.00;99.90
57106;DHT22;62662;56.788;23.942;2022-11-23T16:28:33;-2.00;99.90
57106;DHT22;62662;56.788;23.942;2022-11-23T16:31:02;-2.10;99.90
57106;DHT22;62662;56.788;23.942;2022-11-23T16:33:30;-2.10;99.90
57106;DHT22;62662;56.788;23.942;2022-11-23T16:35:57;-2.10;99.90
57106;DHT22;62662;56.788;23.942;2022-11-23T16:38:24;-2.00;99.90
57106;DHT22;62662;56.788;23.942;2022-11-23T16:40:52;-2.00;99.90
57106;DHT22;62662;56.788;23.942;2022-11-23T16:43:19;-1.90;99.90
57106;DHT22;62662;56.788;23.942;2022-11-23T16:45:48;-1.70;99.90
57106;DHT22;62662;56.788;23.942;2022-11-23T16:50:54;-2.00;99.90
57106;DHT22;62662;56.788;23.942;2022-11-23T16:53:22;-2.00;99.90
57106;DHT22;62662;56.788;23.942;2022-11-23T16:55:53;-1.80;99.90
57106;DHT22;62662;56.788;23.942;2022-11-23T16:58:21;-1.90;99.90
57106;DHT22;62662;56.788;23.942;2022-11-23T17:00:49;-1.80;99.90
57106;DHT22;62662;56.788;23.942;2022-11-23T17:03:19;-1.90;99.90
57106;DHT22;62662;56.788;23.942;2022-11-23T17:05:47;-2.00;99.90
57106;DHT22;62662;56.788;23.942;2022-11-23T17:08:14;-2.10;99.90
57106;DHT22;62662;56.788;23.942;2022-11-23T17:10:49;-2.10;99.90
57106;DHT22;62662;56.788;23.942;2022-11-23T17:13:23;-2.10;99.90
57106;DHT22;62662;56.788;23.942;2022-11-23T17:15:51;-2.00;99.90
57106;DHT22;62662;56.788;23.942;2022-11-23T17:18:18;-2.00;99.90
57106;DHT22;62662;56.788;23.942;2022-11-23T17:20:48;-2.00;99.90
57106;DHT22;62662;56.788;23.942;2022-11-23T17:23:15;-2.00;99.90
57106;DHT22;62662;56.788;23.942;2022-11-23T17:25:42;-2.00;99.90
57106;DHT22;62662;56.788;23.942;2022-11-23T17:28:19;-1.90;99.90
57106;DHT22;62662;56.788;23.942;2022-11-23T17:30:47;-1.90;99.90
57106;DHT22;62662;56.788;23.942;2022-11-23T17:33:15;-1.40;99.90
57106;DHT22;62662;56.788;23.942;2022-11-23T17:35:42;-1.80;99.90
57106;DHT22;62662;56.788;23.942;2022-11-23T17:38:14;-1.90;99.90
57106;DHT22;62662;56.788;23.942;2022-11-23T17:40:43;-1.00;99.90
57106;DHT22;62662;56.788;23.942;2022-11-23T17:43:13;-2.00;99.90
57106;DHT22;62662;56.788;23.942;2022-11-23T17:45:41;-2.00;99.90
57106;DHT22;62662;56.788;23.942;2022-11-23T17:48:14;-2.00;99.90
57106;DHT22;62662;56.788;23.942;2022-11-23T17:50:42;-1.90;99.90
57106;DHT22;62662;56.788;23.942;2022-11-23T17:53:12;-2.00;99.90
57106;DHT22;62662;56.788;23.942;2022-11-23T17:55:40;-1.90;99.90
57106;DHT22;62662;56.788;23.942;2022-11-23T17:58:08;-1.90;99.90
57106;DHT22;62662;56.788;23.942;2022-11-23T18:00:37;-1.90;99.90
57106;DHT22;62662;56.788;23.942;2022-11-23T18:03:05;-2.00;99.90
57106;DHT22;62662;56.788;23.942;2022-11-23T18:05:32;-2.00;99.90
57106;DHT22;62662;56.788;23.942;2022-11-23T18:08:00;-2.00;99.90
57106;DHT22;62662;56.788;23.942;2022-11-23T18:10:27;-2.00;99.90
57106;DHT22;62662;56.788;23.942;2022-11-23T18:12:54;-2.10;99.90
57106;DHT22;62662;56.788;23.942;2022-11-23T18:15:22;-2.10;99.90
57106;DHT22;62662;56.788;23.942;2022-11-23T18:17:49;-2.10;99.90
57106;DHT22;62662;56.788;23.942;2022-11-23T18:20:17;-2.00;99.90
57106;DHT22;62662;56.788;23.942;2022-11-23T18:22:44;-2.10;99.90
57106;DHT22;62662;56.788;23.942;2022-11-23T18:25:11;-2.00;99.90
57106;DHT22;62662;56.788;23.942;2022-11-23T18:27:39;-2.00;99.90
57106;DHT22;62662;56.788;23.942;2022-11-23T18:30:07;-1.90;99.90
57106;DHT22;62662;56.788;23.942;2022-11-23T18:32:35;-1.90;99.90
57106;DHT22;62662;56.788;23.942;2022-11-23T18:35:02;-1.90;99.90
57106;DHT22;62662;56.788;23.942;2022-11-23T18:37:31;-2.00;99.90
57106;DHT22;62662;56.788;23.942;2022-11-23T18:40:00;-1.30;99.90
57106;DHT22;62662;56.788;23.942;2022-11-23T18:42:28;-1.90;99.90
57106;DHT22;62662;56.788;23.942;2022-11-23T18:44:55;-1.90;99.90
57106;DHT22;62662;56.788;23.942;2022-11-23T18:47:23;-1.80;99.90
57106;DHT22;62662;56.788;23.942;2022-11-23T18:49:51;-1.80;99.90
57106;DHT22;62662;56.788;23.942;2022-11-23T18:52:21;-1.80;99.90
57106;DHT22;62662;56.788;23.942;2022-11-23T18:54:48;-1.90;99.90
57106;DHT22;62662;56.788;23.942;2022-11-23T18:57:16;-1.90;99.90
57106;DHT22;62662;56.788;23.942;2022-11-23T18:59:45;-1.90;99.90
57106;DHT22;62662;56.788;23.942;2022-11-23T19:02:24;-1.90;99.90
57106;DHT22;62662;56.788;23.942;2022-11-23T19:04:52;-1.90;99.90
57106;DHT22;62662;56.788;23.942;2022-11-23T19:07:20;-1.90;99.90